createdAt,value
2018-09-06T00:00:50.967Z,937.51
2018-09-06T00:01:50.903Z,937.44
2018-09-06T00:02:50.858Z,937.50
2018-09-06T00:03:50.799Z,937.50
2018-09-06T00:04:50.813Z,937.49
2018-09-06T00:05:50.718Z,937.52
2018-09-06T00:06:50.675Z,937.54
2018-09-06T00:07:50.777Z,937.48
2018-09-06T00:08:50.561Z,937.54
2018-09-06T00:09:50.526Z,937.55
2018-09-06T00:10:50.465Z,937.50
2018-09-06T00:11:50.417Z,937.52
2018-09-06T00:12:50.367Z,937.52
2018-09-06T00:13:50.312Z,937.47
2018-09-06T00:14:50.266Z,937.50
2018-09-06T00:15:50.212Z,937.53
2018-09-06T00:16:50.166Z,937.57
2018-09-06T00:17:50.118Z,937.54
2018-09-06T00:18:50.069Z,937.61
2018-09-06T00:19:50.024Z,937.64
2018-09-06T00:20:49.973Z,937.64
2018-09-06T00:21:49.920Z,937.61
2018-09-06T00:22:49.867Z,937.61
2018-09-06T00:23:49.820Z,937.66
2018-09-06T00:24:49.785Z,937.64
2018-09-06T00:25:49.698Z,937.68
2018-09-06T00:26:49.647Z,937.65
2018-09-06T00:27:49.623Z,937.65
2018-09-06T00:28:49.561Z,937.61
2018-09-06T00:29:49.521Z,937.62
2018-09-06T00:30:49.478Z,937.54
2018-09-06T00:31:49.400Z,937.54
2018-09-06T00:32:49.376Z,937.49
2018-09-06T00:33:49.329Z,937.53
2018-09-06T00:34:49.259Z,937.49
2018-09-06T00:35:49.200Z,937.50
2018-09-06T00:36:49.164Z,937.51
2018-09-06T00:37:49.119Z,937.49
2018-09-06T00:38:49.066Z,937.49
2018-09-06T00:39:49.016Z,937.54
2018-09-06T00:40:48.964Z,937.56
2018-09-06T00:41:48.911Z,937.58
2018-09-06T00:42:48.869Z,937.56
2018-09-06T00:43:48.837Z,937.64
2018-09-06T00:44:48.767Z,937.61
2018-09-06T00:45:48.726Z,937.61
2018-09-06T00:46:48.670Z,937.58
2018-09-06T00:47:48.619Z,937.58
2018-09-06T00:48:48.569Z,937.59
2018-09-06T00:49:48.520Z,937.55
2018-09-06T00:50:48.469Z,937.60
2018-09-06T00:51:48.420Z,937.54
2018-09-06T00:52:48.369Z,937.61
2018-09-06T00:53:48.315Z,937.65
2018-09-06T00:54:48.280Z,937.63
2018-09-06T00:55:48.227Z,937.65
2018-09-06T00:56:48.181Z,937.65
2018-09-06T00:57:48.121Z,937.62
2018-09-06T00:58:48.077Z,937.60
2018-09-06T00:59:48.031Z,937.55
2018-09-06T01:00:47.965Z,937.63
2018-09-06T01:01:47.921Z,937.60
2018-09-06T01:02:47.868Z,937.65
2018-09-06T01:03:47.817Z,937.63
2018-09-06T01:04:47.771Z,937.66
2018-09-06T01:05:47.723Z,937.66
2018-09-06T01:06:47.667Z,937.71
2018-09-06T01:07:47.623Z,937.69
2018-09-06T01:08:47.561Z,937.68
2018-09-06T01:09:47.530Z,937.69
2018-09-06T01:10:47.473Z,937.69
2018-09-06T01:11:47.427Z,937.69
2018-09-06T01:12:47.374Z,937.72
2018-09-06T01:13:47.322Z,937.66
2018-09-06T01:14:47.285Z,937.67
2018-09-06T01:15:47.224Z,937.69
2018-09-06T01:16:47.177Z,937.60
2018-09-06T01:17:47.130Z,937.64
2018-09-06T01:18:47.072Z,937.64
2018-09-06T01:19:47.015Z,937.60
2018-09-06T01:20:46.975Z,937.62
2018-09-06T01:21:46.906Z,937.63
2018-09-06T01:22:46.871Z,937.63
2018-09-06T01:23:46.830Z,937.65
2018-09-06T01:24:46.778Z,937.66
2018-09-06T01:25:46.725Z,937.62
2018-09-06T01:26:46.677Z,937.65
2018-09-06T01:27:46.629Z,937.67
2018-09-06T01:28:46.577Z,937.67
2018-09-06T01:29:46.513Z,937.71
2018-09-06T01:30:46.477Z,937.71
2018-09-06T01:31:46.434Z,937.74
2018-09-06T01:32:46.378Z,937.72
2018-09-06T01:33:46.327Z,937.73
2018-09-06T01:34:46.277Z,937.76
2018-09-06T01:35:46.235Z,937.80
2018-09-06T01:36:46.186Z,937.86
2018-09-06T01:37:46.124Z,937.81
2018-09-06T01:38:46.075Z,937.81
2018-09-06T01:39:46.030Z,937.78
2018-09-06T01:40:45.987Z,937.76
2018-09-06T01:41:45.916Z,937.76
2018-09-06T01:42:45.880Z,937.76
2018-09-06T01:43:45.851Z,937.72
2018-09-06T01:44:45.783Z,937.71
2018-09-06T01:45:45.746Z,937.76
2018-09-06T01:46:45.672Z,937.74
2018-09-06T01:47:45.626Z,937.66
2018-09-06T01:48:45.583Z,937.65
2018-09-06T01:49:45.542Z,937.66
2018-09-06T01:50:45.478Z,937.70
2018-09-06T01:51:45.432Z,937.67
2018-09-06T01:52:45.384Z,937.62
2018-09-06T01:53:45.327Z,937.65
2018-09-06T01:54:45.283Z,937.67
2018-09-06T01:55:45.228Z,937.64
2018-09-06T01:56:45.178Z,937.63
2018-09-06T01:57:45.132Z,937.58
2018-09-06T01:58:45.097Z,937.53
2018-09-06T01:59:45.037Z,937.51
2018-09-06T02:00:44.992Z,937.51
2018-09-06T02:01:44.928Z,937.57
2018-09-06T02:02:44.886Z,937.57
2018-09-06T02:03:44.822Z,937.51
2018-09-06T02:04:44.770Z,937.58
2018-09-06T02:05:44.734Z,937.59
2018-09-06T02:06:44.691Z,937.60
2018-09-06T02:07:44.631Z,937.60
2018-09-06T02:08:44.598Z,937.62
2018-09-06T02:09:44.537Z,937.67
2018-09-06T02:10:44.488Z,937.62
2018-09-06T02:11:44.433Z,937.63
2018-09-06T02:12:44.366Z,937.62
2018-09-06T02:13:44.360Z,937.71
2018-09-06T02:14:44.294Z,937.63
2018-09-06T02:15:44.237Z,937.63
2018-09-06T02:16:44.197Z,937.62
2018-09-06T02:17:44.120Z,937.67
2018-09-06T02:18:44.068Z,937.69
2018-09-06T02:19:44.028Z,937.70
2018-09-06T02:20:43.986Z,937.66
2018-09-06T02:21:43.939Z,937.67
2018-09-06T02:22:43.891Z,937.64
2018-09-06T02:23:43.826Z,937.66
2018-09-06T02:24:43.786Z,937.64
2018-09-06T02:25:43.736Z,937.62
2018-09-06T02:26:43.686Z,937.66
2018-09-06T02:27:43.635Z,937.69
2018-09-06T02:28:43.583Z,937.72
2018-09-06T02:29:43.531Z,937.67
2018-09-06T02:30:43.486Z,937.64
2018-09-06T02:31:43.442Z,937.64
2018-09-06T02:32:43.383Z,937.64
2018-09-06T02:33:43.346Z,937.68
2018-09-06T02:34:43.281Z,937.66
2018-09-06T02:35:43.238Z,937.66
2018-09-06T02:36:43.176Z,937.65
2018-09-06T02:37:43.138Z,937.69
2018-09-06T02:38:43.080Z,937.62
2018-09-06T02:39:43.040Z,937.67
2018-09-06T02:40:42.990Z,937.66
2018-09-06T02:41:42.946Z,937.62
2018-09-06T02:42:42.888Z,937.60
2018-09-06T02:43:42.831Z,937.57
2018-09-06T02:44:42.792Z,937.57
2018-09-06T02:45:42.726Z,937.54
2018-09-06T02:46:42.680Z,937.53
2018-09-06T02:47:42.635Z,937.55
2018-09-06T02:48:42.592Z,937.53
2018-09-06T02:49:42.529Z,937.54
2018-09-06T02:50:42.492Z,937.50
2018-09-06T02:51:42.435Z,937.43
2018-09-06T02:52:42.385Z,937.42
2018-09-06T02:53:42.389Z,937.40
2018-09-06T02:54:42.273Z,937.40
2018-09-06T02:55:42.242Z,937.40
2018-09-06T02:56:42.185Z,937.39
2018-09-06T02:57:42.135Z,937.39
2018-09-06T02:58:42.089Z,937.37
2018-09-06T02:59:42.019Z,937.36
2018-09-06T03:00:41.987Z,937.38
2018-09-06T03:01:41.932Z,937.38
2018-09-06T03:02:41.884Z,937.39
2018-09-06T03:03:41.845Z,937.35
2018-09-06T03:04:41.783Z,937.36
2018-09-06T03:05:41.743Z,937.30
2018-09-06T03:06:41.685Z,937.29
2018-09-06T03:07:41.638Z,937.29
2018-09-06T03:08:41.602Z,937.35
2018-09-06T03:09:41.535Z,937.27
2018-09-06T03:10:41.484Z,937.20
2018-09-06T03:11:41.437Z,937.16
2018-09-06T03:12:41.386Z,937.21
2018-09-06T03:13:41.344Z,937.13
2018-09-06T03:14:41.287Z,937.13
2018-09-06T03:15:41.230Z,937.09
2018-09-06T03:16:41.183Z,937.05
2018-09-06T03:17:41.139Z,937.02
2018-09-06T03:18:41.084Z,937.01
2018-09-06T03:19:41.040Z,936.99
2018-09-06T03:20:40.987Z,937.01
2018-09-06T03:21:40.927Z,936.99
2018-09-06T03:22:40.867Z,937.03
2018-09-06T03:23:40.834Z,936.95
2018-09-06T03:24:40.778Z,936.96
2018-09-06T03:25:40.734Z,936.99
2018-09-06T03:26:40.695Z,936.95
2018-09-06T03:27:40.629Z,936.97
2018-09-06T03:28:40.586Z,937.00
2018-09-06T03:29:40.531Z,936.93
2018-09-06T03:30:40.485Z,936.91
2018-09-06T03:31:40.435Z,936.92
2018-09-06T03:32:40.376Z,936.90
2018-09-06T03:33:40.334Z,936.92
2018-09-06T03:34:40.294Z,936.88
2018-09-06T03:35:40.285Z,936.84
2018-09-06T03:36:40.186Z,936.81
2018-09-06T03:37:40.133Z,936.86
2018-09-06T03:38:40.084Z,936.87
2018-09-06T03:39:40.040Z,936.84
2018-09-06T03:40:39.979Z,936.86
2018-09-06T03:41:39.921Z,936.86
2018-09-06T03:42:39.876Z,936.82
2018-09-06T03:43:39.832Z,936.83
2018-09-06T03:44:39.784Z,936.82
2018-09-06T03:45:39.743Z,936.81
2018-09-06T03:46:39.698Z,936.81
2018-09-06T03:47:39.631Z,936.82
2018-09-06T03:48:39.589Z,936.81
2018-09-06T03:49:39.541Z,936.84
2018-09-06T03:50:39.478Z,936.80
2018-09-06T03:51:39.435Z,936.78
2018-09-06T03:52:39.386Z,936.78
2018-09-06T03:53:39.331Z,936.79
2018-09-06T03:54:39.283Z,936.79
2018-09-06T03:55:39.239Z,936.81
2018-09-06T03:56:39.183Z,936.81
2018-09-06T03:57:39.121Z,936.83
2018-09-06T03:58:39.075Z,936.86
2018-09-06T03:59:39.027Z,936.82
2018-09-06T04:00:38.988Z,936.82
2018-09-06T04:01:38.936Z,936.82
2018-09-06T04:02:38.884Z,936.87
2018-09-06T04:03:38.838Z,936.84
2018-09-06T04:04:38.780Z,936.86
2018-09-06T04:05:38.731Z,936.84
2018-09-06T04:06:38.683Z,936.82
2018-09-06T04:07:38.632Z,936.79
2018-09-06T04:08:38.582Z,936.69
2018-09-06T04:09:38.533Z,936.65
2018-09-06T04:10:38.482Z,936.65
2018-09-06T04:11:38.420Z,936.62
2018-09-06T04:12:38.394Z,936.59
2018-09-06T04:13:38.326Z,936.63
2018-09-06T04:14:38.283Z,936.61
2018-09-06T04:15:38.230Z,936.61
2018-09-06T04:16:38.176Z,936.53
2018-09-06T04:17:38.124Z,936.56
2018-09-06T04:18:38.097Z,936.53
2018-09-06T04:19:38.033Z,936.58
2018-09-06T04:20:37.994Z,936.57
2018-09-06T04:21:37.933Z,936.56
2018-09-06T04:22:37.888Z,936.57
2018-09-06T04:23:37.832Z,936.53
2018-09-06T04:24:37.779Z,936.51
2018-09-06T04:25:37.736Z,936.55
2018-09-06T04:26:37.664Z,936.56
2018-09-06T04:27:37.618Z,936.61
2018-09-06T04:28:37.569Z,936.61
2018-09-06T04:29:37.524Z,936.65
2018-09-06T04:30:37.480Z,936.61
2018-09-06T04:31:37.439Z,936.58
2018-09-06T04:32:37.380Z,936.59
2018-09-06T04:33:37.329Z,936.61
2018-09-06T04:34:37.298Z,936.59
2018-09-06T04:35:37.231Z,936.59
2018-09-06T04:36:37.178Z,936.54
2018-09-06T04:37:37.139Z,936.52
2018-09-06T04:38:37.077Z,936.52
2018-09-06T04:39:37.038Z,936.53
2018-09-06T04:40:36.992Z,936.50
2018-09-06T04:41:36.932Z,936.48
2018-09-06T04:42:36.874Z,936.52
2018-09-06T04:43:36.880Z,936.50
2018-09-06T04:44:36.777Z,936.47
2018-09-06T04:45:36.732Z,936.44
2018-09-06T04:46:36.666Z,936.46
2018-09-06T04:47:36.619Z,936.48
2018-09-06T04:48:36.580Z,936.46
2018-09-06T04:49:36.527Z,936.42
2018-09-06T04:50:36.492Z,936.39
2018-09-06T04:51:36.442Z,936.33
2018-09-06T04:52:36.379Z,936.32
2018-09-06T04:53:36.330Z,936.27
2018-09-06T04:54:36.274Z,936.27
2018-09-06T04:55:36.240Z,936.22
2018-09-06T04:56:36.180Z,936.22
2018-09-06T04:57:36.127Z,936.23
2018-09-06T04:58:36.106Z,936.24
2018-09-06T04:59:36.029Z,936.29
2018-09-06T05:00:35.985Z,936.26
2018-09-06T05:01:35.933Z,936.26
2018-09-06T05:02:35.883Z,936.24
2018-09-06T05:03:35.830Z,936.23
2018-09-06T05:04:35.776Z,936.29
2018-09-06T05:05:35.724Z,936.28
2018-09-06T05:06:35.678Z,936.26
2018-09-06T05:07:35.612Z,936.28
2018-09-06T05:08:35.574Z,936.31
2018-09-06T05:09:35.525Z,936.35
2018-09-06T05:10:35.478Z,936.37
2018-09-06T05:11:35.427Z,936.33
2018-09-06T05:12:35.373Z,936.32
2018-09-06T05:13:35.332Z,936.26
2018-09-06T05:14:35.275Z,936.17
2018-09-06T05:15:35.212Z,936.06
2018-09-06T05:16:35.180Z,936.04
2018-09-06T05:17:35.140Z,935.97
2018-09-06T05:18:35.065Z,935.98
2018-09-06T05:19:35.015Z,935.89
2018-09-06T05:20:34.976Z,935.89
2018-09-06T05:21:34.918Z,935.85
2018-09-06T05:22:34.873Z,935.87
2018-09-06T05:23:34.825Z,935.81
2018-09-06T05:24:34.777Z,935.76
2018-09-06T05:25:34.718Z,935.79
2018-09-06T05:26:34.680Z,935.80
2018-09-06T05:27:34.640Z,935.82
2018-09-06T05:28:34.578Z,935.86
2018-09-06T05:29:34.536Z,935.87
2018-09-06T05:30:34.527Z,935.87
2018-09-06T05:31:34.430Z,935.91
2018-09-06T05:32:34.379Z,935.90
2018-09-06T05:33:34.342Z,935.84
2018-09-06T05:34:34.286Z,935.88
2018-09-06T05:35:34.227Z,935.86
2018-09-06T05:36:34.221Z,935.88
2018-09-06T05:37:34.129Z,935.89
2018-09-06T05:38:34.090Z,935.85
2018-09-06T05:39:34.023Z,935.91
2018-09-06T05:40:33.986Z,935.92
2018-09-06T05:41:33.928Z,935.93
2018-09-06T05:42:33.885Z,935.93
2018-09-06T05:43:33.831Z,935.95
2018-09-06T05:44:33.772Z,935.92
2018-09-06T05:45:33.725Z,935.89
2018-09-06T05:46:33.662Z,935.93
2018-09-06T05:47:33.736Z,935.95
2018-09-06T05:48:33.638Z,935.97
2018-09-06T05:49:33.523Z,935.97
2018-09-06T05:50:33.476Z,936.00
2018-09-06T05:51:33.425Z,936.05
2018-09-06T05:52:33.374Z,936.00
2018-09-06T05:53:33.377Z,935.98
2018-09-06T05:54:33.289Z,935.91
2018-09-06T05:55:33.245Z,935.91
2018-09-06T05:56:33.170Z,935.89
2018-09-06T05:57:33.131Z,935.88
2018-09-06T05:58:33.090Z,935.87
2018-09-06T05:59:33.065Z,935.84
2018-09-06T06:00:32.977Z,935.82
2018-09-06T06:01:32.921Z,935.83
2018-09-06T06:02:32.885Z,935.83
2018-09-06T06:03:32.826Z,935.76
2018-09-06T06:04:32.770Z,935.68
2018-09-06T06:05:32.741Z,935.76
2018-09-06T06:06:32.673Z,935.65
2018-09-06T06:07:32.631Z,935.64
2018-09-06T06:08:32.571Z,935.60
2018-09-06T06:09:32.518Z,935.63
2018-09-06T06:10:32.480Z,935.62
2018-09-06T06:11:32.417Z,935.65
2018-09-06T06:12:32.380Z,935.58
2018-09-06T06:13:32.325Z,935.65
2018-09-06T06:14:32.283Z,935.68
2018-09-06T06:15:32.222Z,935.63
2018-09-06T06:16:32.181Z,935.64
2018-09-06T06:17:32.122Z,935.59
2018-09-06T06:18:32.072Z,935.50
2018-09-06T06:19:32.027Z,935.53
2018-09-06T06:20:31.974Z,935.54
2018-09-06T06:21:31.921Z,935.55
2018-09-06T06:22:31.880Z,935.60
2018-09-06T06:23:31.833Z,935.57
2018-09-06T06:24:31.772Z,935.62
2018-09-06T06:25:31.719Z,935.59
2018-09-06T06:26:31.681Z,935.59
2018-09-06T06:27:31.622Z,935.56
2018-09-06T06:28:31.572Z,935.54
2018-09-06T06:29:31.503Z,935.51
2018-09-06T06:30:31.454Z,935.44
2018-09-06T06:31:31.422Z,935.51
2018-09-06T06:32:31.366Z,935.55
2018-09-06T06:33:31.321Z,935.51
2018-09-06T06:34:31.330Z,935.53
2018-09-06T06:35:31.227Z,935.51
2018-09-06T06:36:31.170Z,935.48
2018-09-06T06:37:31.120Z,935.54
2018-09-06T06:38:31.072Z,935.52
2018-09-06T06:39:31.021Z,935.52
2018-09-06T06:40:30.973Z,935.52
2018-09-06T06:41:30.907Z,935.54
2018-09-06T06:42:30.879Z,935.58
2018-09-06T06:43:30.821Z,935.55
2018-09-06T06:44:30.770Z,935.57
2018-09-06T06:45:30.722Z,935.59
2018-09-06T06:46:30.670Z,935.57
2018-09-06T06:47:30.619Z,935.58
2018-09-06T06:48:30.574Z,935.58
2018-09-06T06:49:30.524Z,935.54
2018-09-06T06:50:30.505Z,935.55
2018-09-06T06:51:30.427Z,935.55
2018-09-06T06:52:30.363Z,935.60
2018-09-06T06:53:30.318Z,935.59
2018-09-06T06:54:30.267Z,935.59
2018-09-06T06:55:30.219Z,935.67
2018-09-06T06:56:30.165Z,935.69
2018-09-06T06:57:30.115Z,935.65
2018-09-06T06:58:30.120Z,935.73
2018-09-06T06:59:30.015Z,935.72
2018-09-06T07:00:29.965Z,935.69
2018-09-06T07:01:29.903Z,935.69
2018-09-06T07:02:29.869Z,935.67
2018-09-06T07:03:29.818Z,935.69
2018-09-06T07:04:29.797Z,935.69
2018-09-06T07:05:29.731Z,935.70
2018-09-06T07:06:29.666Z,935.70
2018-09-06T07:07:29.617Z,935.69
2018-09-06T07:08:29.551Z,935.73
2018-09-06T07:09:29.526Z,935.78
2018-09-06T07:10:29.469Z,935.69
2018-09-06T07:11:29.417Z,935.75
2018-09-06T07:12:29.366Z,935.79
2018-09-06T07:13:29.318Z,935.81
2018-09-06T07:14:29.271Z,935.84
2018-09-06T07:15:29.234Z,935.90
2018-09-06T07:16:29.166Z,935.82
2018-09-06T07:17:29.101Z,935.83
2018-09-06T07:18:29.255Z,935.82
2018-09-06T07:19:29.015Z,935.82
2018-09-06T07:20:28.957Z,935.82
2018-09-06T07:21:28.909Z,935.83
2018-09-06T07:22:28.859Z,935.83
2018-09-06T07:23:28.816Z,935.79
2018-09-06T07:24:28.772Z,935.89
2018-09-06T07:25:28.720Z,935.89
2018-09-06T07:26:28.666Z,935.88
2018-09-06T07:27:28.607Z,935.88
2018-09-06T07:28:28.568Z,935.94
2018-09-06T07:29:28.512Z,935.95
2018-09-06T07:30:28.479Z,935.94
2018-09-06T07:31:28.413Z,935.96
2018-09-06T07:32:28.355Z,935.95
2018-09-06T07:33:28.313Z,935.91
2018-09-06T07:34:28.260Z,935.95
2018-09-06T07:35:28.212Z,935.93
2018-09-06T07:36:28.164Z,935.95
2018-09-06T07:37:28.112Z,935.99
2018-09-06T07:38:28.060Z,935.97
2018-09-06T07:39:28.015Z,936.02
2018-09-06T07:40:27.972Z,936.00
2018-09-06T07:41:27.974Z,936.02
2018-09-06T07:42:27.855Z,936.02
2018-09-06T07:43:27.812Z,936.06
2018-09-06T07:44:27.754Z,936.04
2018-09-06T07:45:27.722Z,936.04
2018-09-06T07:46:27.640Z,936.06
2018-09-06T07:47:27.602Z,936.09
2018-09-06T07:48:27.557Z,936.04
2018-09-06T07:49:27.508Z,936.07
2018-09-06T07:50:27.452Z,936.07
2018-09-06T07:51:27.412Z,936.11
2018-09-06T07:52:27.384Z,936.10
2018-09-06T07:53:27.300Z,936.10
2018-09-06T07:54:27.264Z,936.07
2018-09-06T07:55:27.197Z,936.15
2018-09-06T07:56:27.153Z,936.02
2018-09-06T07:57:27.089Z,936.06
2018-09-06T07:58:27.040Z,936.08
2018-09-06T07:59:27.004Z,936.06
2018-09-06T08:00:26.969Z,936.10
2018-09-06T08:01:26.972Z,936.10
2018-09-06T08:02:26.848Z,936.14
2018-09-06T08:03:26.800Z,936.11
2018-09-06T08:04:26.745Z,936.12
2018-09-06T08:05:26.722Z,936.11
2018-09-06T08:06:26.641Z,936.13
2018-09-06T08:07:26.598Z,936.10
2018-09-06T08:08:26.551Z,936.18
2018-09-06T08:09:26.510Z,936.20
2018-09-06T08:10:26.436Z,936.18
2018-09-06T08:11:26.405Z,936.21
2018-09-06T08:12:26.345Z,936.21
2018-09-06T08:13:26.294Z,936.21
2018-09-06T08:14:26.256Z,936.21
2018-09-06T08:15:26.210Z,936.25
2018-09-06T08:16:26.149Z,936.26
2018-09-06T08:17:26.100Z,936.29
2018-09-06T08:18:26.051Z,936.34
2018-09-06T08:19:25.991Z,936.30
2018-09-06T08:20:25.945Z,936.34
2018-09-06T08:21:25.894Z,936.36
2018-09-06T08:22:25.846Z,936.37
2018-09-06T08:23:25.794Z,936.40
2018-09-06T08:24:25.763Z,936.39
2018-09-06T08:25:25.719Z,936.38
2018-09-06T08:26:25.640Z,936.45
2018-09-06T08:27:25.596Z,936.41
2018-09-06T08:28:25.545Z,936.41
2018-09-06T08:29:25.525Z,936.39
2018-09-06T08:30:25.444Z,936.44
2018-09-06T08:31:25.400Z,936.39
2018-09-06T08:32:25.360Z,936.45
2018-09-06T08:33:25.288Z,936.46
2018-09-06T08:34:25.253Z,936.49
2018-09-06T08:35:25.192Z,936.48
2018-09-06T08:36:25.146Z,936.47
2018-09-06T08:37:25.089Z,936.47
2018-09-06T08:38:25.038Z,936.43
2018-09-06T08:39:24.990Z,936.46
2018-09-06T08:40:24.940Z,936.45
2018-09-06T08:41:24.887Z,936.47
2018-09-06T08:42:24.840Z,936.47
2018-09-06T08:43:24.788Z,936.48
2018-09-06T08:44:24.742Z,936.47
2018-09-06T08:45:24.762Z,936.49
2018-09-06T08:46:24.640Z,936.53
2018-09-06T08:47:24.598Z,936.51
2018-09-06T08:48:24.539Z,936.56
2018-09-06T08:49:24.485Z,936.53
2018-09-06T08:50:24.449Z,936.50
2018-09-06T08:51:24.388Z,936.51
2018-09-06T08:52:24.373Z,936.56
2018-09-06T08:53:24.280Z,936.57
2018-09-06T08:54:24.237Z,936.56
2018-09-06T08:55:24.187Z,936.61
2018-09-06T08:56:24.123Z,936.58
2018-09-06T08:57:24.083Z,936.61
2018-09-06T08:58:24.071Z,936.59
2018-09-06T08:59:23.993Z,936.63
2018-09-06T09:00:23.937Z,936.60
2018-09-06T09:01:23.884Z,936.58
2018-09-06T09:02:23.881Z,936.59
2018-09-06T09:03:23.902Z,936.61
2018-09-06T09:04:23.733Z,936.63
2018-09-06T09:05:23.690Z,936.64
2018-09-06T09:06:23.642Z,936.63
2018-09-06T09:07:23.583Z,936.64
2018-09-06T09:08:23.561Z,936.65
2018-09-06T09:09:23.484Z,936.67
2018-09-06T09:10:23.444Z,936.70
2018-09-06T09:11:23.391Z,936.69
2018-09-06T09:12:23.389Z,936.69
2018-09-06T09:13:23.386Z,936.74
2018-09-06T09:14:23.233Z,936.70
2018-09-06T09:15:23.192Z,936.71
2018-09-06T09:16:23.138Z,936.77
2018-09-06T09:17:23.100Z,936.73
2018-09-06T09:18:23.109Z,936.77
2018-09-06T09:19:22.980Z,936.76
2018-09-06T09:20:22.929Z,936.76
2018-09-06T09:21:22.882Z,936.77
2018-09-06T09:22:22.877Z,936.77
2018-09-06T09:23:22.774Z,936.79
2018-09-06T09:24:22.730Z,936.80
2018-09-06T09:25:22.698Z,936.80
2018-09-06T09:26:22.627Z,936.80
2018-09-06T09:27:22.576Z,936.81
2018-09-06T09:28:22.525Z,936.85
2018-09-06T09:29:22.487Z,936.86
2018-09-06T09:30:22.422Z,936.86
2018-09-06T09:31:22.374Z,936.86
2018-09-06T09:32:22.312Z,936.89
2018-09-06T09:33:22.285Z,936.95
2018-09-06T09:34:22.224Z,936.95
2018-09-06T09:35:22.178Z,937.02
2018-09-06T09:36:22.130Z,937.06
2018-09-06T09:37:22.073Z,937.15
2018-09-06T09:38:22.031Z,937.24
2018-09-06T09:39:21.981Z,937.34
2018-09-06T09:40:21.914Z,937.56
2018-09-06T09:41:21.874Z,937.58
2018-09-06T09:42:21.827Z,937.35
2018-09-06T09:43:21.788Z,937.21
2018-09-06T09:44:21.730Z,937.19
2018-09-06T09:45:21.667Z,937.23
2018-09-06T09:47:41.208Z,937.20
2018-09-06T09:48:41.226Z,937.17
2018-09-06T09:49:41.258Z,937.19
2018-09-06T09:51:20.929Z,937.18
2018-09-06T09:52:20.968Z,937.13
2018-09-06T09:53:20.925Z,937.15
2018-09-06T09:54:20.875Z,937.13
2018-09-06T09:55:20.815Z,937.09
2018-09-06T09:56:20.758Z,937.09
2018-09-06T09:57:20.719Z,937.13
2018-09-06T09:58:20.670Z,937.21
2018-09-06T09:59:20.638Z,937.15
2018-09-06T10:00:20.580Z,937.09
2018-09-06T10:01:20.542Z,937.07
2018-09-06T10:02:20.477Z,937.09
2018-09-06T10:03:20.445Z,937.08
2018-09-06T10:04:20.371Z,937.11
2018-09-06T10:05:20.340Z,937.22
2018-09-06T10:06:20.334Z,937.20
2018-09-06T10:07:20.233Z,937.22
2018-09-06T10:08:20.188Z,937.20
2018-09-06T10:09:20.133Z,937.25
2018-09-06T10:10:20.101Z,937.31
2018-09-06T10:11:20.036Z,937.34
2018-09-06T10:12:19.990Z,937.29
2018-09-06T10:13:19.926Z,937.21
2018-09-06T10:14:19.886Z,937.17
2018-09-06T10:15:19.849Z,937.27
2018-09-06T10:16:19.776Z,937.39
2018-09-06T10:17:19.825Z,937.32
2018-09-06T10:18:19.782Z,937.34
2018-09-06T10:19:19.645Z,937.42
2018-09-06T10:20:19.606Z,937.41
2018-09-06T10:21:19.553Z,937.39
2018-09-06T10:22:19.504Z,937.29
2018-09-06T10:23:19.455Z,937.37
2018-09-06T10:24:19.410Z,937.77
2018-09-06T10:25:19.366Z,938.02
2018-09-06T10:26:19.297Z,938.18
2018-09-06T10:27:19.267Z,938.19
2018-09-06T10:28:19.204Z,938.21
2018-09-06T10:29:19.172Z,937.42
2018-09-06T10:30:19.131Z,938.23
2018-09-06T10:31:19.072Z,938.26
2018-09-06T10:32:19.030Z,938.25
2018-09-06T10:33:18.996Z,937.44
2018-09-06T10:34:18.966Z,938.35
2018-09-06T10:35:18.922Z,937.63
2018-09-06T10:36:18.864Z,938.10
2018-09-06T10:37:18.822Z,938.25
2018-09-06T10:38:18.777Z,938.41
2018-09-06T10:39:18.772Z,938.38
2018-09-06T10:40:18.701Z,937.60
2018-09-06T10:41:18.639Z,938.31
2018-09-06T10:42:18.609Z,938.36
2018-09-06T10:43:18.566Z,938.24
2018-09-06T10:44:18.524Z,937.68
2018-09-06T10:45:18.486Z,938.27
2018-09-06T10:46:18.444Z,938.42
2018-09-06T10:47:18.406Z,938.08
2018-09-06T10:48:18.347Z,938.39
2018-09-06T10:49:18.326Z,938.37
2018-09-06T10:50:18.279Z,937.75
2018-09-06T10:51:18.236Z,938.40
2018-09-06T10:52:18.201Z,938.46
2018-09-06T10:53:18.222Z,938.15
2018-09-06T10:54:18.110Z,937.70
2018-09-06T10:55:18.074Z,937.61
2018-09-06T10:56:18.188Z,937.67
2018-09-06T10:57:17.984Z,937.69
2018-09-06T10:58:17.951Z,937.70
2018-09-06T10:59:17.898Z,937.74
2018-09-06T11:00:17.856Z,937.76
2018-09-06T11:01:17.819Z,937.82
2018-09-06T11:02:17.771Z,937.75
2018-09-06T11:03:17.729Z,937.76
2018-09-06T11:04:17.683Z,937.75
2018-09-06T11:05:17.643Z,937.79
2018-09-06T11:06:17.594Z,937.78
2018-09-06T11:07:17.552Z,937.82
2018-09-06T11:08:17.511Z,937.79
2018-09-06T11:09:17.470Z,937.84
2018-09-06T11:10:17.425Z,937.77
2018-09-06T11:11:17.364Z,937.76
2018-09-06T11:12:17.305Z,937.75
2018-09-06T11:13:17.294Z,937.78
2018-09-06T11:14:17.224Z,937.73
2018-09-06T11:15:17.195Z,937.77
2018-09-06T11:16:17.133Z,937.75
2018-09-06T11:17:17.097Z,937.75
2018-09-06T11:18:17.063Z,937.76
2018-09-06T11:19:16.994Z,937.69
2018-09-06T11:20:16.969Z,937.73
2018-09-06T11:21:17.104Z,937.71
2018-09-06T11:22:17.190Z,937.79
2018-09-06T11:23:16.817Z,937.77
2018-09-06T11:24:16.783Z,937.76
2018-09-06T11:25:16.743Z,937.75
2018-09-06T11:26:16.675Z,937.76
2018-09-06T11:27:16.628Z,937.82
2018-09-06T11:28:16.575Z,937.83
2018-09-06T11:29:16.544Z,937.83
2018-09-06T11:30:16.489Z,937.83
2018-09-06T11:31:16.448Z,937.87
2018-09-06T11:32:16.386Z,937.80
2018-09-06T11:33:16.391Z,937.92
2018-09-06T11:34:16.295Z,937.88
2018-09-06T11:35:16.231Z,937.93
2018-09-06T11:36:16.197Z,937.96
2018-09-06T11:37:16.170Z,937.99
2018-09-06T11:38:16.102Z,938.02
2018-09-06T11:39:16.046Z,938.07
2018-09-06T11:40:16.066Z,938.06
2018-09-06T11:41:15.963Z,938.10
2018-09-06T11:42:15.910Z,938.06
2018-09-06T11:43:15.857Z,938.12
2018-09-06T11:44:15.824Z,938.18
2018-09-06T11:45:15.772Z,938.22
2018-09-06T11:46:15.732Z,938.18
2018-09-06T11:47:15.800Z,938.21
2018-09-06T11:48:15.640Z,938.16
2018-09-06T11:49:15.580Z,938.19
2018-09-06T11:50:15.536Z,938.15
2018-09-06T11:51:15.484Z,938.16
2018-09-06T11:52:15.449Z,938.15
2018-09-06T11:53:15.385Z,938.18
2018-09-06T11:54:15.339Z,938.15
2018-09-06T11:55:15.303Z,938.15
2018-09-06T11:56:15.242Z,938.14
2018-09-06T11:57:15.177Z,938.14
2018-09-06T11:58:15.151Z,938.14
2018-09-06T11:59:15.099Z,938.22
2018-09-06T12:00:15.061Z,938.23
2018-09-06T12:01:15.000Z,938.18
2018-09-06T12:02:15.110Z,938.25
2018-09-06T12:03:14.908Z,938.39
2018-09-06T12:04:14.862Z,938.30
2018-09-06T12:05:14.819Z,938.38
2018-09-06T12:06:14.807Z,938.36
2018-09-06T12:07:14.702Z,938.33
2018-09-06T12:08:14.665Z,938.36
2018-09-06T12:09:14.623Z,938.29
2018-09-06T12:10:14.566Z,938.36
2018-09-06T12:11:14.541Z,938.46
2018-09-06T12:12:14.466Z,938.41
2018-09-06T12:13:14.432Z,938.32
2018-09-06T12:14:14.376Z,938.33
2018-09-06T12:15:14.320Z,938.34
2018-09-06T12:16:14.283Z,938.38
2018-09-06T12:17:14.229Z,938.37
2018-09-06T12:18:14.194Z,938.42
2018-09-06T12:19:14.126Z,938.41
2018-09-06T12:20:14.094Z,938.45
2018-09-06T12:21:14.041Z,938.34
2018-09-06T12:22:13.973Z,938.41
2018-09-06T12:23:13.931Z,938.36
2018-09-06T12:24:13.873Z,938.36
2018-09-06T12:25:13.915Z,938.36
2018-09-06T12:26:13.793Z,938.34
2018-09-06T12:27:13.735Z,938.50
2018-09-06T12:28:13.695Z,938.43
2018-09-06T12:29:13.644Z,938.40
2018-09-06T12:30:13.619Z,938.39